Avioradar koristi kolačiće da bi Vam omogućio jednostavnije i ugodnije korištenje stranice. 

AVIORADAR - Hrvatski zrakoplovni portal

METAR & TAF

[Source: ADDS]
METAR
LDZA 141500Z 21002KT CAVOK 22/15 Q1018 NOSIG =
LDZA 141125Z 1412/1512 VRB02KT CAVOK TX23/1413Z TN10/1505Z PROB40 TEMPO 1422/1508 22008KT LDSP 141500Z 22009KT CAVOK 22/16 Q1020 BECMG 23004KT =
LDSP 141125Z 1412/1512 23007KT CAVOK TX24/1412Z TN14/1504Z BECMG 1415/1417 VRB02KT LDDU 141500Z 28004KT 160V310 CAVOK 21/14 Q1021 NOSIG =
LDDU 141125Z 1412/1512 26008KT CAVOK TX23/1412Z TN13/1504Z BECMG 1416/1418 09005KT BECMG 1507/1509 16010KT LDPL 141500Z 24004KT CAVOK 20/14 Q1020 NOSIG =
LDPL 141125Z 1412/1512 VRB02KT 9999 SCT020 TX21/1413Z TN13/1502Z PROB40 TEMPO 1421/1507 3000 BR MIFG PROB30 TEMPO 1500/1507 1200 BCFG BKN004 BECMG 1506/1508 12008KT LDZD 141500Z 30005KT 270V340 CAVOK 20/14 Q1020 NOSIG =
LDZD 141125Z 1412/1512 28008KT 9999 SCT020 TX23/1413Z TN10/1504Z BECMG 1418/1420 VRB02KT 3000 BR MIFG TEMPO 1420/1507 1200 BCFG PROB40 TEMPO 1500/1506 0300 FG BECMG 1507/1509 14010KT 9999 SCT015 LDRI 141500Z 13005KT CAVOK 19/15 Q1020 =
LDRI 141125Z 1412/1512 VRB02KT 9999 SCT020 TX21/1413Z TN14/1503Z PROB40 TEMPO 1500/1507 3000 BR PROB30 TEMPO 1500/1507 1200 BCFG BKN004 BECMG 1507/1509 14006KT LDOS 141500Z 05004KT CAVOK 23/13 Q1018 =
LDOS 141125Z 1412/1512 VRB02KT CAVOK TX25/1413Z TN08/1505Z BECMG 1422/1500 0100 FG VV001 BECMG 1506/1508 CAVOK
TAF
LDZA 141125Z 1412/1512 VRB02KT CAVOK TX23/1413Z TN10/1505Z PROB40 TEMPO 1422/1508 22008KT =
LDSP 141125Z 1412/1512 23007KT CAVOK TX24/1412Z TN14/1504Z BECMG 1415/1417 VRB02KT =
LDDU 141125Z 1412/1512 26008KT CAVOK TX23/1412Z TN13/1504Z BECMG 1416/1418 09005KT BECMG 1507/1509 16010KT =
LDPL 141125Z 1412/1512 VRB02KT 9999 SCT020 TX21/1413Z TN13/1502Z PROB40 TEMPO 1421/1507 3000 BR MIFG PROB30 TEMPO 1500/1507 1200 BCFG BKN004 BECMG 1506/1508 12008KT =
LDZD 141125Z 1412/1512 28008KT 9999 SCT020 TX23/1413Z TN10/1504Z BECMG 1418/1420 VRB02KT 3000 BR MIFG TEMPO 1420/1507 1200 BCFG PROB40 TEMPO 1500/1506 0300 FG BECMG 1507/1509 14010KT 9999 SCT015 =
LDRI 141125Z 1412/1512 VRB02KT 9999 SCT020 TX21/1413Z TN14/1503Z PROB40 TEMPO 1500/1507 3000 BR PROB30 TEMPO 1500/1507 1200 BCFG BKN004 BECMG 1507/1509 14006KT =
LDOS 141125Z 1412/1512 VRB02KT CAVOK TX25/1413Z TN08/1505Z BECMG 1422/1500 0100 FG VV001 BECMG 1506/1508 CAVOK =
SR / SS: 05:11 / 16:12 UTC (Zagreb 2019-10-14)